sensor_id;sensor_type;location;lat;lon;timestamp;temperature;humidity
69208;SHT31;56321;47.662;8.878;2023-04-03T00:00:04;8.99;65.84
69208;SHT31;56321;47.662;8.878;2023-04-03T00:02:30;8.95;65.79
69208;SHT31;56321;47.662;8.878;2023-04-03T00:04:55;8.96;65.89
69208;SHT31;56321;47.662;8.878;2023-04-03T00:07:21;8.96;65.62
69208;SHT31;56321;47.662;8.878;2023-04-03T00:09:46;8.92;65.82
69208;SHT31;56321;47.662;8.878;2023-04-03T00:12:11;8.95;65.80
69208;SHT31;56321;47.662;8.878;2023-04-03T00:14:37;8.95;65.62
69208;SHT31;56321;47.662;8.878;2023-04-03T00:17:02;8.93;65.88
69208;SHT31;56321;47.662;8.878;2023-04-03T00:19:27;8.93;65.76
69208;SHT31;56321;47.662;8.878;2023-04-03T00:21:52;8.92;65.42
69208;SHT31;56321;47.662;8.878;2023-04-03T00:24:18;8.86;65.50
69208;SHT31;56321;47.662;8.878;2023-04-03T00:26:44;8.89;65.58
69208;SHT31;56321;47.662;8.878;2023-04-03T00:29:09;8.88;65.44
69208;SHT31;56321;47.662;8.878;2023-04-03T00:31:35;8.84;65.06
69208;SHT31;56321;47.662;8.878;2023-04-03T00:34:00;8.75;64.83
69208;SHT31;56321;47.662;8.878;2023-04-03T00:36:26;8.69;64.94
69208;SHT31;56321;47.662;8.878;2023-04-03T00:38:51;8.55;64.77
69208;SHT31;56321;47.662;8.878;2023-04-03T00:41:16;8.47;65.15
69208;SHT31;56321;47.662;8.878;2023-04-03T00:43:42;8.43;65.19
69208;SHT31;56321;47.662;8.878;2023-04-03T00:46:07;8.38;65.33
69208;SHT31;56321;47.662;8.878;2023-04-03T00:48:46;8.38;65.46
69208;SHT31;56321;47.662;8.878;2023-04-03T00:51:17;8.43;65.71
69208;SHT31;56321;47.662;8.878;2023-04-03T00:54:05;8.41;65.62
69208;SHT31;56321;47.662;8.878;2023-04-03T00:56:32;8.43;65.54
69208;SHT31;56321;47.662;8.878;2023-04-03T00:59:13;8.36;65.95
69208;SHT31;56321;47.662;8.878;2023-04-03T01:01:40;8.37;65.86
69208;SHT31;56321;47.662;8.878;2023-04-03T01:04:06;8.36;65.57
69208;SHT31;56321;47.662;8.878;2023-04-03T01:06:36;8.33;65.90
69208;SHT31;56321;47.662;8.878;2023-04-03T01:09:02;8.30;65.47
69208;SHT31;56321;47.662;8.878;2023-04-03T01:11:27;8.26;65.55
69208;SHT31;56321;47.662;8.878;2023-04-03T01:13:53;8.19;65.65
69208;SHT31;56321;47.662;8.878;2023-04-03T01:16:19;8.16;65.95
69208;SHT31;56321;47.662;8.878;2023-04-03T01:18:45;8.19;66.22
69208;SHT31;56321;47.662;8.878;2023-04-03T01:26:55;8.07;66.53
69208;SHT31;56321;47.662;8.878;2023-04-03T01:29:20;8.06;66.48
69208;SHT31;56321;47.662;8.878;2023-04-03T01:32:22;8.05;66.66
69208;SHT31;56321;47.662;8.878;2023-04-03T01:34:40;7.99;67.29
69208;SHT31;56321;47.662;8.878;2023-04-03T01:37:05;8.02;67.46
69208;SHT31;56321;47.662;8.878;2023-04-03T01:39:31;7.99;67.32
69208;SHT31;56321;47.662;8.878;2023-04-03T01:41:56;7.99;67.47
69208;SHT31;56321;47.662;8.878;2023-04-03T01:44:21;7.96;67.57
69208;SHT31;56321;47.662;8.878;2023-04-03T01:46:47;7.93;67.88
69208;SHT31;56321;47.662;8.878;2023-04-03T01:49:12;7.92;67.69
69208;SHT31;56321;47.662;8.878;2023-04-03T01:51:37;7.92;68.08
69208;SHT31;56321;47.662;8.878;2023-04-03T01:54:03;7.89;68.05
69208;SHT31;56321;47.662;8.878;2023-04-03T01:56:28;7.92;68.08
69208;SHT31;56321;47.662;8.878;2023-04-03T01:58:53;7.93;68.27
69208;SHT31;56321;47.662;8.878;2023-04-03T02:01:19;7.89;67.87
69208;SHT31;56321;47.662;8.878;2023-04-03T02:03:44;7.89;67.79
69208;SHT31;56321;47.662;8.878;2023-04-03T02:06:10;7.81;68.20
69208;SHT31;56321;47.662;8.878;2023-04-03T02:08:35;7.75;68.03
69208;SHT31;56321;47.662;8.878;2023-04-03T02:11:00;7.71;67.97
69208;SHT31;56321;47.662;8.878;2023-04-03T02:13:26;7.65;68.09
69208;SHT31;56321;47.662;8.878;2023-04-03T02:15:51;7.59;68.20
69208;SHT31;56321;47.662;8.878;2023-04-03T02:18:16;7.51;68.02
69208;SHT31;56321;47.662;8.878;2023-04-03T02:20:42;7.44;68.45
69208;SHT31;56321;47.662;8.878;2023-04-03T02:23:07;7.43;68.17
69208;SHT31;56321;47.662;8.878;2023-04-03T02:25:33;7.32;68.11
69208;SHT31;56321;47.662;8.878;2023-04-03T02:27:58;7.26;68.34
69208;SHT31;56321;47.662;8.878;2023-04-03T02:30:24;7.30;68.87
69208;SHT31;56321;47.662;8.878;2023-04-03T02:32:49;7.32;68.61
69208;SHT31;56321;47.662;8.878;2023-04-03T02:35:15;7.37;68.65
69208;SHT31;56321;47.662;8.878;2023-04-03T02:37:40;7.41;68.99
69208;SHT31;56321;47.662;8.878;2023-04-03T02:40:06;7.47;68.50
69208;SHT31;56321;47.662;8.878;2023-04-03T02:42:32;7.47;68.34
69208;SHT31;56321;47.662;8.878;2023-04-03T02:44:57;7.48;68.66
69208;SHT31;56321;47.662;8.878;2023-04-03T02:47:23;7.48;68.07
69208;SHT31;56321;47.662;8.878;2023-04-03T02:49:48;7.47;67.68
69208;SHT31;56321;47.662;8.878;2023-04-03T02:52:14;7.40;67.35
69208;SHT31;56321;47.662;8.878;2023-04-03T02:54:40;7.32;67.67
69208;SHT31;56321;47.662;8.878;2023-04-03T02:57:05;7.30;67.68
69208;SHT31;56321;47.662;8.878;2023-04-03T02:59:33;7.27;67.82
69208;SHT31;56321;47.662;8.878;2023-04-03T03:01:58;7.26;67.87
69208;SHT31;56321;47.662;8.878;2023-04-03T03:04:23;7.16;67.29
69208;SHT31;56321;47.662;8.878;2023-04-03T03:06:48;7.04;67.05
69208;SHT31;56321;47.662;8.878;2023-04-03T03:09:14;6.92;66.68
69208;SHT31;56321;47.662;8.878;2023-04-03T03:11:39;6.79;66.42
69208;SHT31;56321;47.662;8.878;2023-04-03T03:14:05;6.64;66.48
69208;SHT31;56321;47.662;8.878;2023-04-03T03:16:30;6.58;66.49
69208;SHT31;56321;47.662;8.878;2023-04-03T03:18:56;6.46;66.57
69208;SHT31;56321;47.662;8.878;2023-04-03T03:21:21;6.35;66.57
69208;SHT31;56321;47.662;8.878;2023-04-03T03:23:47;6.31;66.72
69208;SHT31;56321;47.662;8.878;2023-04-03T03:26:12;6.34;67.17
69208;SHT31;56321;47.662;8.878;2023-04-03T03:28:39;6.41;66.76
69208;SHT31;56321;47.662;8.878;2023-04-03T03:31:05;6.45;66.83
69208;SHT31;56321;47.662;8.878;2023-04-03T03:33:30;6.49;66.99
69208;SHT31;56321;47.662;8.878;2023-04-03T03:35:56;6.59;66.61
69208;SHT31;56321;47.662;8.878;2023-04-03T03:38:22;6.61;66.41
69208;SHT31;56321;47.662;8.878;2023-04-03T03:40:48;6.62;66.32
69208;SHT31;56321;47.662;8.878;2023-04-03T03:43:14;6.64;65.95
69208;SHT31;56321;47.662;8.878;2023-04-03T03:45:40;6.61;65.55
69208;SHT31;56321;47.662;8.878;2023-04-03T03:48:05;6.48;65.51
69208;SHT31;56321;47.662;8.878;2023-04-03T03:50:31;6.41;65.94
69208;SHT31;56321;47.662;8.878;2023-04-03T03:52:56;6.42;66.30
69208;SHT31;56321;47.662;8.878;2023-04-03T03:55:21;6.38;65.87
69208;SHT31;56321;47.662;8.878;2023-04-03T03:57:47;6.35;65.81
69208;SHT31;56321;47.662;8.878;2023-04-03T04:00:12;6.27;65.54
69208;SHT31;56321;47.662;8.878;2023-04-03T04:02:38;6.17;65.50
69208;SHT31;56321;47.662;8.878;2023-04-03T04:05:03;6.10;65.76
69208;SHT31;56321;47.662;8.878;2023-04-03T04:07:29;6.07;65.75
69208;SHT31;56321;47.662;8.878;2023-04-03T04:09:54;6.09;65.18
69208;SHT31;56321;47.662;8.878;2023-04-03T04:12:20;6.10;65.41
69208;SHT31;56321;47.662;8.878;2023-04-03T04:14:46;6.09;64.82
69208;SHT31;56321;47.662;8.878;2023-04-03T04:17:14;6.10;64.85
69208;SHT31;56321;47.662;8.878;2023-04-03T04:19:40;6.09;64.53
69208;SHT31;56321;47.662;8.878;2023-04-03T04:22:05;6.03;64.48
69208;SHT31;56321;47.662;8.878;2023-04-03T04:24:31;5.99;64.71
69208;SHT31;56321;47.662;8.878;2023-04-03T04:26:56;6.00;64.17
69208;SHT31;56321;47.662;8.878;2023-04-03T04:29:21;5.90;64.24
69208;SHT31;56321;47.662;8.878;2023-04-03T04:31:46;5.90;63.68
69208;SHT31;56321;47.662;8.878;2023-04-03T04:34:12;5.86;63.91
69208;SHT31;56321;47.662;8.878;2023-04-03T04:36:38;5.86;63.78
69208;SHT31;56321;47.662;8.878;2023-04-03T04:39:04;5.85;63.63
69208;SHT31;56321;47.662;8.878;2023-04-03T04:41:30;5.87;63.31
69208;SHT31;56321;47.662;8.878;2023-04-03T04:43:55;5.83;63.15
69208;SHT31;56321;47.662;8.878;2023-04-03T04:46:21;5.80;62.57
69208;SHT31;56321;47.662;8.878;2023-04-03T04:48:46;5.79;62.50
69208;SHT31;56321;47.662;8.878;2023-04-03T04:51:13;5.79;61.99
69208;SHT31;56321;47.662;8.878;2023-04-03T04:53:38;5.77;62.16
69208;SHT31;56321;47.662;8.878;2023-04-03T04:56:04;5.86;62.05
69208;SHT31;56321;47.662;8.878;2023-04-03T04:58:30;5.87;61.83
69208;SHT31;56321;47.662;8.878;2023-04-03T05:01:02;5.89;61.06
69208;SHT31;56321;47.662;8.878;2023-04-03T05:03:28;5.89;61.21
69208;SHT31;56321;47.662;8.878;2023-04-03T05:05:54;5.90;60.82
69208;SHT31;56321;47.662;8.878;2023-04-03T05:08:20;5.89;60.43
69208;SHT31;56321;47.662;8.878;2023-04-03T05:10:46;5.89;60.31
69208;SHT31;56321;47.662;8.878;2023-04-03T05:13:11;5.90;60.34
69208;SHT31;56321;47.662;8.878;2023-04-03T05:15:37;5.89;59.94
69208;SHT31;56321;47.662;8.878;2023-04-03T05:18:02;5.82;59.96
69208;SHT31;56321;47.662;8.878;2023-04-03T05:20:28;5.85;59.94
69208;SHT31;56321;47.662;8.878;2023-04-03T05:22:53;5.85;60.39
69208;SHT31;56321;47.662;8.878;2023-04-03T05:25:18;5.93;59.91
69208;SHT31;56321;47.662;8.878;2023-04-03T05:27:44;5.92;59.51
69208;SHT31;56321;47.662;8.878;2023-04-03T05:30:09;5.86;59.34
69208;SHT31;56321;47.662;8.878;2023-04-03T05:32:35;5.86;59.74
69208;SHT31;56321;47.662;8.878;2023-04-03T05:35:00;5.90;59.79
69208;SHT31;56321;47.662;8.878;2023-04-03T05:37:25;5.89;59.20
69208;SHT31;56321;47.662;8.878;2023-04-03T05:39:51;5.86;58.99
69208;SHT31;56321;47.662;8.878;2023-04-03T05:42:16;5.77;58.31
69208;SHT31;56321;47.662;8.878;2023-04-03T05:44:42;5.76;59.14
69208;SHT31;56321;47.662;8.878;2023-04-03T05:47:08;5.77;59.11
69208;SHT31;56321;47.662;8.878;2023-04-03T05:49:33;5.83;58.76
69208;SHT31;56321;47.662;8.878;2023-04-03T05:51:59;5.82;58.83
69208;SHT31;56321;47.662;8.878;2023-04-03T05:54:25;5.79;58.69
69208;SHT31;56321;47.662;8.878;2023-04-03T05:56:51;5.80;58.91
69208;SHT31;56321;47.662;8.878;2023-04-03T05:59:17;5.86;58.43
69208;SHT31;56321;47.662;8.878;2023-04-03T06:01:42;5.87;58.51
69208;SHT31;56321;47.662;8.878;2023-04-03T06:04:08;5.96;58.80
69208;SHT31;56321;47.662;8.878;2023-04-03T06:07:02;6.06;58.68
69208;SHT31;56321;47.662;8.878;2023-04-03T06:09:28;6.21;58.58
69208;SHT31;56321;47.662;8.878;2023-04-03T06:11:57;6.27;58.35
69208;SHT31;56321;47.662;8.878;2023-04-03T06:14:24;6.31;58.07
69208;SHT31;56321;47.662;8.878;2023-04-03T06:16:51;6.40;57.93
69208;SHT31;56321;47.662;8.878;2023-04-03T06:19:16;6.42;57.55
69208;SHT31;56321;47.662;8.878;2023-04-03T06:21:41;6.42;57.63
69208;SHT31;56321;47.662;8.878;2023-04-03T06:24:07;6.44;57.50
69208;SHT31;56321;47.662;8.878;2023-04-03T06:26:33;6.46;57.52
69208;SHT31;56321;47.662;8.878;2023-04-03T06:28:59;6.52;57.53
69208;SHT31;56321;47.662;8.878;2023-04-03T06:31:24;6.58;57.49
69208;SHT31;56321;47.662;8.878;2023-04-03T06:33:50;6.65;57.48
69208;SHT31;56321;47.662;8.878;2023-04-03T06:36:15;6.71;57.43
69208;SHT31;56321;47.662;8.878;2023-04-03T06:38:44;6.75;56.99
69208;SHT31;56321;47.662;8.878;2023-04-03T06:41:10;6.81;56.76
69208;SHT31;56321;47.662;8.878;2023-04-03T06:43:35;6.81;56.71
69208;SHT31;56321;47.662;8.878;2023-04-03T06:46:01;6.82;56.15
69208;SHT31;56321;47.662;8.878;2023-04-03T06:48:26;6.78;55.90
69208;SHT31;56321;47.662;8.878;2023-04-03T06:50:53;6.75;56.22
69208;SHT31;56321;47.662;8.878;2023-04-03T06:53:18;6.72;56.20
69208;SHT31;56321;47.662;8.878;2023-04-03T06:55:43;6.71;55.97
69208;SHT31;56321;47.662;8.878;2023-04-03T06:58:09;6.75;56.36
69208;SHT31;56321;47.662;8.878;2023-04-03T07:00:34;6.79;56.03
69208;SHT31;56321;47.662;8.878;2023-04-03T07:03:00;6.79;55.77
69208;SHT31;56321;47.662;8.878;2023-04-03T07:05:25;6.79;56.05
69208;SHT31;56321;47.662;8.878;2023-04-03T07:07:51;6.79;55.71
69208;SHT31;56321;47.662;8.878;2023-04-03T07:10:17;6.82;56.15
69208;SHT31;56321;47.662;8.878;2023-04-03T07:12:42;6.86;55.92
69208;SHT31;56321;47.662;8.878;2023-04-03T07:15:09;6.92;56.32
69208;SHT31;56321;47.662;8.878;2023-04-03T07:17:34;6.90;55.65
69208;SHT31;56321;47.662;8.878;2023-04-03T07:20:01;6.90;55.73
69208;SHT31;56321;47.662;8.878;2023-04-03T07:22:26;6.93;56.14
69208;SHT31;56321;47.662;8.878;2023-04-03T07:24:51;7.00;55.89
69208;SHT31;56321;47.662;8.878;2023-04-03T07:27:17;7.04;55.95
69208;SHT31;56321;47.662;8.878;2023-04-03T07:29:43;7.10;55.90
69208;SHT31;56321;47.662;8.878;2023-04-03T07:32:09;7.13;56.01
69208;SHT31;56321;47.662;8.878;2023-04-03T07:34:35;7.13;55.40
69208;SHT31;56321;47.662;8.878;2023-04-03T07:37:00;7.14;55.67
69208;SHT31;56321;47.662;8.878;2023-04-03T07:39:26;7.10;55.52
69208;SHT31;56321;47.662;8.878;2023-04-03T07:41:51;7.07;55.79
69208;SHT31;56321;47.662;8.878;2023-04-03T07:44:17;7.00;55.28
69208;SHT31;56321;47.662;8.878;2023-04-03T07:46:42;6.93;55.48
69208;SHT31;56321;47.662;8.878;2023-04-03T07:49:08;6.93;55.94
69208;SHT31;56321;47.662;8.878;2023-04-03T07:51:33;6.96;56.34
69208;SHT31;56321;47.662;8.878;2023-04-03T07:53:59;7.06;56.03
69208;SHT31;56321;47.662;8.878;2023-04-03T07:56:25;7.17;56.18
69208;SHT31;56321;47.662;8.878;2023-04-03T07:58:50;7.28;56.01
69208;SHT31;56321;47.662;8.878;2023-04-03T08:01:16;7.32;55.48
69208;SHT31;56321;47.662;8.878;2023-04-03T08:03:41;7.34;55.65
69208;SHT31;56321;47.662;8.878;2023-04-03T08:06:08;7.27;55.39
69208;SHT31;56321;47.662;8.878;2023-04-03T08:08:33;7.32;55.68
69208;SHT31;56321;47.662;8.878;2023-04-03T08:11:00;7.40;55.93
69208;SHT31;56321;47.662;8.878;2023-04-03T08:13:26;7.43;55.78
69208;SHT31;56321;47.662;8.878;2023-04-03T08:15:51;7.46;55.78
69208;SHT31;56321;47.662;8.878;2023-04-03T08:18:17;7.51;55.84
69208;SHT31;56321;47.662;8.878;2023-04-03T08:20:46;7.59;55.85
69208;SHT31;56321;47.662;8.878;2023-04-03T08:23:12;7.65;55.37
69208;SHT31;56321;47.662;8.878;2023-04-03T08:25:38;7.67;55.44
69208;SHT31;56321;47.662;8.878;2023-04-03T08:28:04;7.69;55.67
69208;SHT31;56321;47.662;8.878;2023-04-03T08:30:30;7.72;55.05
69208;SHT31;56321;47.662;8.878;2023-04-03T08:32:56;7.64;54.70
69208;SHT31;56321;47.662;8.878;2023-04-03T08:35:21;7.59;55.18
69208;SHT31;56321;47.662;8.878;2023-04-03T08:37:46;7.54;54.89
69208;SHT31;56321;47.662;8.878;2023-04-03T08:40:16;7.41;55.01
69208;SHT31;56321;47.662;8.878;2023-04-03T08:43:01;7.34;55.67
69208;SHT31;56321;47.662;8.878;2023-04-03T08:45:48;7.32;55.47
69208;SHT31;56321;47.662;8.878;2023-04-03T08:50:47;7.31;55.65
69208;SHT31;56321;47.662;8.878;2023-04-03T08:53:16;7.30;55.85
69208;SHT31;56321;47.662;8.878;2023-04-03T08:55:53;7.34;56.56
69208;SHT31;56321;47.662;8.878;2023-04-03T08:58:25;7.46;56.42
69208;SHT31;56321;47.662;8.878;2023-04-03T09:01:00;7.47;55.81
69208;SHT31;56321;47.662;8.878;2023-04-03T09:03:30;7.50;55.99
69208;SHT31;56321;47.662;8.878;2023-04-03T09:06:15;7.52;56.01
69208;SHT31;56321;47.662;8.878;2023-04-03T09:08:47;7.57;55.83
69208;SHT31;56321;47.662;8.878;2023-04-03T09:14:01;7.51;56.03
69208;SHT31;56321;47.662;8.878;2023-04-03T09:16:39;7.61;56.46
69208;SHT31;56321;47.662;8.878;2023-04-03T09:19:13;7.69;56.44
69208;SHT31;56321;47.662;8.878;2023-04-03T09:21:40;7.79;56.55
69208;SHT31;56321;47.662;8.878;2023-04-03T09:24:10;7.88;56.67
69208;SHT31;56321;47.662;8.878;2023-04-03T09:26:59;7.93;55.25
69208;SHT31;56321;47.662;8.878;2023-04-03T09:29:26;7.89;56.00
69208;SHT31;56321;47.662;8.878;2023-04-03T09:32:02;7.90;55.97
69208;SHT31;56321;47.662;8.878;2023-04-03T09:34:40;7.99;55.90
69208;SHT31;56321;47.662;8.878;2023-04-03T09:37:06;8.03;55.95
69208;SHT31;56321;47.662;8.878;2023-04-03T09:39:49;8.09;55.97
69208;SHT31;56321;47.662;8.878;2023-04-03T09:42:20;8.09;55.80
69208;SHT31;56321;47.662;8.878;2023-04-03T09:45:00;8.03;55.64
69208;SHT31;56321;47.662;8.878;2023-04-03T09:47:31;7.97;55.79
69208;SHT31;56321;47.662;8.878;2023-04-03T09:52:42;7.90;56.01
69208;SHT31;56321;47.662;8.878;2023-04-03T09:55:27;7.89;56.18
69208;SHT31;56321;47.662;8.878;2023-04-03T09:57:57;7.85;55.88
69208;SHT31;56321;47.662;8.878;2023-04-03T10:00:26;7.79;55.97
69208;SHT31;56321;47.662;8.878;2023-04-03T10:02:56;7.77;56.12
69208;SHT31;56321;47.662;8.878;2023-04-03T10:05:40;7.78;56.32
69208;SHT31;56321;47.662;8.878;2023-04-03T10:10:38;7.79;55.99
69208;SHT31;56321;47.662;8.878;2023-04-03T10:13:14;7.77;55.41
69208;SHT31;56321;47.662;8.878;2023-04-03T10:16:03;7.74;55.82
69208;SHT31;56321;47.662;8.878;2023-04-03T10:19:04;7.77;56.36
69208;SHT31;56321;47.662;8.878;2023-04-03T10:21:42;7.83;56.84
69208;SHT31;56321;47.662;8.878;2023-04-03T10:24:14;7.82;56.11
69208;SHT31;56321;47.662;8.878;2023-04-03T10:26:45;7.78;55.64
69208;SHT31;56321;47.662;8.878;2023-04-03T10:34:37;7.71;56.41
69208;SHT31;56321;47.662;8.878;2023-04-03T10:37:25;7.79;56.25
69208;SHT31;56321;47.662;8.878;2023-04-03T10:39:59;7.86;56.57
69208;SHT31;56321;47.662;8.878;2023-04-03T10:47:58;7.92;56.14
69208;SHT31;56321;47.662;8.878;2023-04-03T10:50:50;7.86;55.58
69208;SHT31;56321;47.662;8.878;2023-04-03T10:53:51;7.83;55.36
69208;SHT31;56321;47.662;8.878;2023-04-03T10:56:25;7.83;55.20
69208;SHT31;56321;47.662;8.878;2023-04-03T10:58:56;7.78;55.13
69208;SHT31;56321;47.662;8.878;2023-04-03T11:01:32;7.79;55.47
69208;SHT31;56321;47.662;8.878;2023-04-03T11:04:00;7.85;55.50
69208;SHT31;56321;47.662;8.878;2023-04-03T11:06:36;7.95;55.70
69208;SHT31;56321;47.662;8.878;2023-04-03T11:09:16;8.06;55.47
69208;SHT31;56321;47.662;8.878;2023-04-03T11:11:44;8.24;55.79
69208;SHT31;56321;47.662;8.878;2023-04-03T11:14:29;8.34;53.99
69208;SHT31;56321;47.662;8.878;2023-04-03T11:19:49;8.41;54.35
69208;SHT31;56321;47.662;8.878;2023-04-03T11:22:29;8.47;54.72
69208;SHT31;56321;47.662;8.878;2023-04-03T11:25:06;8.55;53.95
69208;SHT31;56321;47.662;8.878;2023-04-03T11:27:43;8.53;53.76
69208;SHT31;56321;47.662;8.878;2023-04-03T11:30:33;8.44;52.63
69208;SHT31;56321;47.662;8.878;2023-04-03T11:33:15;8.37;53.19
69208;SHT31;56321;47.662;8.878;2023-04-03T11:35:49;8.38;53.28
69208;SHT31;56321;47.662;8.878;2023-04-03T11:38:24;8.43;53.78
69208;SHT31;56321;47.662;8.878;2023-04-03T11:40:52;8.48;54.19
69208;SHT31;56321;47.662;8.878;2023-04-03T11:45:56;8.48;53.68
69208;SHT31;56321;47.662;8.878;2023-04-03T11:50:53;8.69;54.45
69208;SHT31;56321;47.662;8.878;2023-04-03T11:56:27;8.78;53.57
69208;SHT31;56321;47.662;8.878;2023-04-03T12:01:55;8.79;53.18
69208;SHT31;56321;47.662;8.878;2023-04-03T12:04:24;8.82;53.21
69208;SHT31;56321;47.662;8.878;2023-04-03T12:07:02;8.88;53.65
69208;SHT31;56321;47.662;8.878;2023-04-03T12:09:57;8.92;53.35
69208;SHT31;56321;47.662;8.878;2023-04-03T12:12:30;8.89;53.46
69208;SHT31;56321;47.662;8.878;2023-04-03T12:14:55;8.88;52.92
69208;SHT31;56321;47.662;8.878;2023-04-03T12:17:36;8.81;53.17
69208;SHT31;56321;47.662;8.878;2023-04-03T12:21:07;8.69;52.90
69208;SHT31;56321;47.662;8.878;2023-04-03T12:23:23;8.61;53.59
69208;SHT31;56321;47.662;8.878;2023-04-03T12:25:50;8.63;53.68
69208;SHT31;56321;47.662;8.878;2023-04-03T12:28:16;8.65;53.84
69208;SHT31;56321;47.662;8.878;2023-04-03T12:30:42;8.71;53.81
69208;SHT31;56321;47.662;8.878;2023-04-03T12:33:33;8.81;53.50
69208;SHT31;56321;47.662;8.878;2023-04-03T12:36:09;8.91;53.59
69208;SHT31;56321;47.662;8.878;2023-04-03T12:39:02;8.95;53.03
69208;SHT31;56321;47.662;8.878;2023-04-03T12:46:52;9.13;53.37
69208;SHT31;56321;47.662;8.878;2023-04-03T12:49:53;9.12;51.85
69208;SHT31;56321;47.662;8.878;2023-04-03T12:52:33;9.12;52.22
69208;SHT31;56321;47.662;8.878;2023-04-03T12:55:01;9.12;52.82
69208;SHT31;56321;47.662;8.878;2023-04-03T12:57:30;9.16;52.72
69208;SHT31;56321;47.662;8.878;2023-04-03T12:59:58;9.16;52.16
69208;SHT31;56321;47.662;8.878;2023-04-03T13:02:29;9.13;52.23
69208;SHT31;56321;47.662;8.878;2023-04-03T13:05:06;9.12;52.27
69208;SHT31;56321;47.662;8.878;2023-04-03T13:07:33;9.09;51.92
69208;SHT31;56321;47.662;8.878;2023-04-03T13:10:20;9.05;51.82
69208;SHT31;56321;47.662;8.878;2023-04-03T13:13:14;9.03;50.94
69208;SHT31;56321;47.662;8.878;2023-04-03T13:15:43;8.96;51.98
69208;SHT31;56321;47.662;8.878;2023-04-03T13:18:28;8.95;51.63
69208;SHT31;56321;47.662;8.878;2023-04-03T13:21:00;8.99;51.75
69208;SHT31;56321;47.662;8.878;2023-04-03T13:23:27;8.98;50.59
69208;SHT31;56321;47.662;8.878;2023-04-03T13:25:52;8.84;50.21
69208;SHT31;56321;47.662;8.878;2023-04-03T13:28:23;8.74;50.14
69208;SHT31;56321;47.662;8.878;2023-04-03T13:33:50;8.76;51.22
69208;SHT31;56321;47.662;8.878;2023-04-03T13:38:44;8.86;51.10
69208;SHT31;56321;47.662;8.878;2023-04-03T13:41:26;8.92;50.60
69208;SHT31;56321;47.662;8.878;2023-04-03T13:43:51;9.01;50.74
69208;SHT31;56321;47.662;8.878;2023-04-03T13:48:47;8.98;50.21
69208;SHT31;56321;47.662;8.878;2023-04-03T13:53:50;8.92;50.56
69208;SHT31;56321;47.662;8.878;2023-04-03T13:56:39;8.99;51.00
69208;SHT31;56321;47.662;8.878;2023-04-03T14:01:52;9.12;51.67
69208;SHT31;56321;47.662;8.878;2023-04-03T14:04:25;9.16;51.37
69208;SHT31;56321;47.662;8.878;2023-04-03T14:06:51;9.19;51.50
69208;SHT31;56321;47.662;8.878;2023-04-03T14:09:19;9.23;51.49
69208;SHT31;56321;47.662;8.878;2023-04-03T14:11:48;9.19;51.33
69208;SHT31;56321;47.662;8.878;2023-04-03T14:14:21;9.22;51.39
69208;SHT31;56321;47.662;8.878;2023-04-03T14:16:51;9.22;50.87
69208;SHT31;56321;47.662;8.878;2023-04-03T14:19:25;9.18;51.09
69208;SHT31;56321;47.662;8.878;2023-04-03T14:21:52;9.16;51.20
69208;SHT31;56321;47.662;8.878;2023-04-03T14:24:18;9.16;50.80
69208;SHT31;56321;47.662;8.878;2023-04-03T14:26:45;9.06;50.59
69208;SHT31;56321;47.662;8.878;2023-04-03T14:29:12;9.03;50.79
69208;SHT31;56321;47.662;8.878;2023-04-03T14:31:38;9.03;50.82
69208;SHT31;56321;47.662;8.878;2023-04-03T14:34:04;8.96;50.79
69208;SHT31;56321;47.662;8.878;2023-04-03T14:36:30;8.93;51.00
69208;SHT31;56321;47.662;8.878;2023-04-03T14:38:59;8.89;51.54
69208;SHT31;56321;47.662;8.878;2023-04-03T14:41:27;8.98;51.39
69208;SHT31;56321;47.662;8.878;2023-04-03T14:43:53;9.01;51.22
69208;SHT31;56321;47.662;8.878;2023-04-03T14:46:26;9.02;50.63
69208;SHT31;56321;47.662;8.878;2023-04-03T14:48:53;8.98;50.43
69208;SHT31;56321;47.662;8.878;2023-04-03T14:51:20;8.85;50.20
69208;SHT31;56321;47.662;8.878;2023-04-03T14:53:45;8.74;50.37
69208;SHT31;56321;47.662;8.878;2023-04-03T14:56:12;8.74;50.40
69208;SHT31;56321;47.662;8.878;2023-04-03T14:58:37;8.72;50.26
69208;SHT31;56321;47.662;8.878;2023-04-03T15:01:03;8.71;50.05
69208;SHT31;56321;47.662;8.878;2023-04-03T15:03:28;8.71;50.46
69208;SHT31;56321;47.662;8.878;2023-04-03T15:05:54;8.74;50.21
69208;SHT31;56321;47.662;8.878;2023-04-03T15:08:25;8.75;50.57
69208;SHT31;56321;47.662;8.878;2023-04-03T15:10:51;8.78;50.70
69208;SHT31;56321;47.662;8.878;2023-04-03T15:13:22;8.89;50.90
69208;SHT31;56321;47.662;8.878;2023-04-03T15:15:48;8.95;50.37
69208;SHT31;56321;47.662;8.878;2023-04-03T15:18:18;8.96;50.01
69208;SHT31;56321;47.662;8.878;2023-04-03T15:20:44;8.98;50.47
69208;SHT31;56321;47.662;8.878;2023-04-03T15:23:12;8.99;50.48
69208;SHT31;56321;47.662;8.878;2023-04-03T15:25:38;9.05;50.25
69208;SHT31;56321;47.662;8.878;2023-04-03T15:28:04;8.99;49.13
69208;SHT31;56321;47.662;8.878;2023-04-03T15:30:30;8.86;48.96
69208;SHT31;56321;47.662;8.878;2023-04-03T15:32:56;8.76;48.67
69208;SHT31;56321;47.662;8.878;2023-04-03T15:35:21;8.65;48.92
69208;SHT31;56321;47.662;8.878;2023-04-03T15:37:46;8.63;49.43
69208;SHT31;56321;47.662;8.878;2023-04-03T15:40:13;8.64;49.95
69208;SHT31;56321;47.662;8.878;2023-04-03T15:42:39;8.68;49.90
69208;SHT31;56321;47.662;8.878;2023-04-03T15:45:04;8.72;50.47
69208;SHT31;56321;47.662;8.878;2023-04-03T15:47:30;8.78;50.60
69208;SHT31;56321;47.662;8.878;2023-04-03T15:49:56;8.78;50.69
69208;SHT31;56321;47.662;8.878;2023-04-03T15:52:21;8.76;50.46
69208;SHT31;56321;47.662;8.878;2023-04-03T15:54:46;8.72;50.27
69208;SHT31;56321;47.662;8.878;2023-04-03T15:57:12;8.67;50.26
69208;SHT31;56321;47.662;8.878;2023-04-03T15:59:37;8.65;50.54
69208;SHT31;56321;47.662;8.878;2023-04-03T16:02:05;8.65;50.70
69208;SHT31;56321;47.662;8.878;2023-04-03T16:04:32;8.65;50.68
69208;SHT31;56321;47.662;8.878;2023-04-03T16:07:01;8.63;50.86
69208;SHT31;56321;47.662;8.878;2023-04-03T16:09:26;8.64;50.78
69208;SHT31;56321;47.662;8.878;2023-04-03T16:11:51;8.63;51.10
69208;SHT31;56321;47.662;8.878;2023-04-03T16:14:17;8.58;50.81
69208;SHT31;56321;47.662;8.878;2023-04-03T16:16:42;8.48;50.35
69208;SHT31;56321;47.662;8.878;2023-04-03T16:19:08;8.36;50.10
69208;SHT31;56321;47.662;8.878;2023-04-03T16:21:34;8.24;50.65
69208;SHT31;56321;47.662;8.878;2023-04-03T16:23:59;8.19;50.46
69208;SHT31;56321;47.662;8.878;2023-04-03T16:26:26;8.13;50.33
69208;SHT31;56321;47.662;8.878;2023-04-03T16:28:52;8.00;50.54
69208;SHT31;56321;47.662;8.878;2023-04-03T16:31:18;7.93;51.08
69208;SHT31;56321;47.662;8.878;2023-04-03T16:33:43;7.96;51.59
69208;SHT31;56321;47.662;8.878;2023-04-03T16:36:08;8.03;51.86
69208;SHT31;56321;47.662;8.878;2023-04-03T16:38:35;8.07;51.71
69208;SHT31;56321;47.662;8.878;2023-04-03T16:41:01;8.13;51.73
69208;SHT31;56321;47.662;8.878;2023-04-03T16:43:30;8.13;51.80
69208;SHT31;56321;47.662;8.878;2023-04-03T16:45:55;8.19;51.78
69208;SHT31;56321;47.662;8.878;2023-04-03T16:48:21;8.22;51.29
69208;SHT31;56321;47.662;8.878;2023-04-03T16:50:47;8.16;51.29
69208;SHT31;56321;47.662;8.878;2023-04-03T16:53:20;8.10;51.56